Time;durP1;ratioP1;P1;durP2;ratioP2;P2;SDS_P1;SDS_P2;PMS_P1;PMS_P2;Temp;Humidity;BMP_temperature;BMP_pressure;BME280_temperature;BME280_humidity;BME280_pressure;Samples;Min_cycle;Max_cycle;Signal;HPM_P1;HPM_P2
2021/08/04 00:02:17;;;;;;;10.65;7.03;;;;;;;17.05;55.23;101300.81;4970863;28;123620;-70
2021/08/04 00:04:44;;;;;;;9.45;6.97;;;;;;;17.04;55.27;101310.63;4964265;28;108205;-70
2021/08/04 00:07:11;;;;;;;10.80;6.93;;;;;;;17.02;55.27;101311.69;4986376;28;109076;-69
2021/08/04 00:09:39;;;;;;;10.77;6.88;;;;;;;16.99;55.47;101302.06;4985177;28;125366;-70
2021/08/04 00:12:06;;;;;;;10.50;6.95;;;;;;;16.98;55.35;101299.47;4976658;28;124591;-69
2021/08/04 00:14:33;;;;;;;7.53;5.97;;;;;;;16.96;55.22;101304.06;4988196;28;109993;-70
2021/08/04 00:17:00;;;;;;;9.15;5.80;;;;;;;16.93;55.03;101303.31;4984810;28;109699;-70
2021/08/04 00:19:28;;;;;;;6.97;5.50;;;;;;;16.91;54.96;101299.88;4978814;28;124349;-70
2021/08/04 00:21:55;;;;;;;8.27;5.80;;;;;;;16.88;54.93;101300.06;4972635;28;123963;-69
2021/08/04 00:24:22;;;;;;;7.70;5.35;;;;;;;16.85;55.10;101304.75;4985754;28;109178;-70
2021/08/04 00:26:49;;;;;;;7.97;5.88;;;;;;;16.81;54.96;101304.06;4979867;28;108632;-70
2021/08/04 00:29:16;;;;;;;8.95;5.85;;;;;;;16.79;55.05;101305.97;4986724;28;123406;-69
2021/08/04 00:31:43;;;;;;;7.57;5.50;;;;;;;16.76;54.97;101306.16;4980438;28;124439;-70
2021/08/04 00:34:11;;;;;;;8.55;5.93;;;;;;;16.73;55.11;101301.03;4964748;28;109363;-70
2021/08/04 00:36:38;;;;;;;7.53;6.07;;;;;;;16.70;55.17;101301.22;4975788;28;107408;-70
2021/08/04 00:39:05;;;;;;;8.68;6.30;;;;;;;16.67;55.18;101302.28;4986022;28;123965;-70
2021/08/04 00:41:42;;;;;;;8.15;5.85;;;;;;;16.63;55.28;101294.53;4972041;28;122870;-69
2021/08/04 00:44:10;;;;;;;8.35;5.75;;;;;;;16.62;55.26;101292.81;4985882;28;108673;-69
2021/08/04 00:46:42;;;;;;;7.10;5.35;;;;;;;16.58;55.35;101296.66;4973535;28;108430;-69
2021/08/04 00:49:12;;;;;;;8.48;5.75;;;;;;;16.55;55.26;101292.34;4975085;28;125381;-69
2021/08/04 00:51:39;;;;;;;7.95;5.50;;;;;;;16.53;55.20;101294.25;4968054;28;123103;-69
2021/08/04 00:54:08;;;;;;;9.98;5.70;;;;;;;16.48;55.16;101286.53;4976903;28;109398;-69
2021/08/04 00:56:35;;;;;;;9.18;5.88;;;;;;;16.47;55.18;101286.63;4970583;28;106783;-69
2021/08/04 00:59:04;;;;;;;9.63;6.63;;;;;;;16.44;55.41;101284.97;4981561;28;124258;-69
2021/08/04 01:01:39;;;;;;;8.68;6.15;;;;;;;16.40;55.37;101283.47;4974911;28;123369;-69
2021/08/04 01:04:13;;;;;;;8.75;6.13;;;;;;;16.37;55.45;101288.13;4981118;28;110079;-69
2021/08/04 01:06:51;;;;;;;8.27;6.20;;;;;;;16.32;55.45;101280.41;4969271;28;108971;-69
2021/08/04 01:09:20;;;;;;;9.50;6.50;;;;;;;16.31;55.76;101284.03;4977166;28;124730;-69
2021/08/04 01:11:55;;;;;;;9.68;5.75;;;;;;;16.27;55.54;101282.50;4975003;28;122719;-69
2021/08/04 01:14:26;;;;;;;8.32;5.57;;;;;;;16.24;55.60;101277.38;4967465;28;108532;-69
2021/08/04 01:16:54;;;;;;;8.23;5.88;;;;;;;16.21;55.64;101282.91;4978393;28;108723;-69
2021/08/04 01:19:37;;;;;;;9.10;6.10;;;;;;;16.18;55.54;101288.41;4981756;28;123334;-69
2021/08/04 01:22:07;;;;;;;8.25;6.18;;;;;;;16.14;55.52;101288.63;4978909;28;123944;-69
2021/08/04 01:24:47;;;;;;;8.95;6.13;;;;;;;16.11;55.56;101288.81;4963686;28;108408;-69
2021/08/04 01:27:16;;;;;;;8.32;5.60;;;;;;;16.08;55.59;101293.47;4964271;28;108754;-69
2021/08/04 01:29:44;;;;;;;8.15;5.57;;;;;;;16.05;55.61;101289.19;4983474;28;124189;-69
2021/08/04 01:32:12;;;;;;;9.15;5.75;;;;;;;16.01;55.68;101287.66;4960702;28;123360;-69
2021/08/04 01:34:40;;;;;;;9.10;6.10;;;;;;;15.98;55.67;101287.84;4988381;28;108634;-69
2021/08/04 01:37:08;;;;;;;7.82;5.88;;;;;;;15.95;55.91;101293.34;4962348;28;108181;-69
2021/08/04 01:39:35;;;;;;;9.07;5.68;;;;;;;15.93;55.77;101289.91;4988417;28;123690;-69
2021/08/04 01:42:04;;;;;;;7.93;5.72;;;;;;;15.90;55.72;101290.13;4963435;28;123982;-70
2021/08/04 01:44:33;;;;;;;8.32;5.93;;;;;;;15.89;55.80;101293.72;4982270;28;109186;-70
2021/08/04 01:47:01;;;;;;;9.52;6.20;;;;;;;15.87;55.85;101290.31;4979386;28;109174;-69
2021/08/04 01:49:30;;;;;;;8.50;5.72;;;;;;;15.85;55.90;101286.88;4967358;28;123803;-70
2021/08/04 01:51:58;;;;;;;9.73;6.05;;;;;;;15.83;55.86;101286.94;4971577;28;123896;-70
2021/08/04 01:54:26;;;;;;;8.50;5.47;;;;;;;15.81;55.90;101282.66;4980929;28;110231;-70
2021/08/04 01:56:53;;;;;;;10.15;5.60;;;;;;;15.80;55.75;101283.59;4983847;28;109464;-70
2021/08/04 01:59:22;;;;;;;9.32;6.00;;;;;;;15.77;55.88;101284.66;4975576;28;124761;-69
2021/08/04 02:01:50;;;;;;;8.43;6.07;;;;;;;15.74;56.07;101288.34;4974309;28;123147;-69
2021/08/04 02:04:18;;;;;;;8.57;6.30;;;;;;;15.73;56.02;101286.66;4958261;28;108689;-70
2021/08/04 02:07:01;;;;;;;8.32;6.10;;;;;;;15.70;56.16;101284.13;4961395;28;108121;-70
2021/08/04 02:09:42;;;;;;;8.50;6.55;;;;;;;15.69;55.99;101282.41;4960196;28;123592;-69
2021/08/04 02:12:11;;;;;;;10.90;5.85;;;;;;;15.69;56.09;101282.41;4970957;28;123404;-70
2021/08/04 02:14:45;;;;;;;7.53;5.75;;;;;;;15.68;56.25;101275.34;4968305;28;108266;-70
2021/08/04 02:17:21;;;;;;;9.03;5.90;;;;;;;15.67;56.33;101273.63;4971208;28;108551;-70
2021/08/04 02:20:18;;;;;;;7.57;5.38;;;;;;;15.66;56.20;101277.25;4973185;28;123430;-70
2021/08/04 02:22:52;;;;;;;8.75;6.03;;;;;;;15.61;56.12;101273.97;4955670;28;123021;-69
2021/08/04 02:25:36;;;;;;;7.90;5.75;;;;;;;15.59;56.25;101273.22;4969172;28;108454;-70
2021/08/04 02:28:07;;;;;;;8.05;5.90;;;;;;;15.58;56.31;101275.03;4980311;28;108471;-69
2021/08/04 02:30:35;;;;;;;8.52;5.78;;;;;;;15.57;56.31;101272.44;4974814;28;124980;-70
2021/08/04 02:33:03;;;;;;;8.07;5.90;;;;;;;15.56;56.33;101273.41;4965190;28;123997;-70
2021/08/04 02:35:31;;;;;;;8.60;5.72;;;;;;;15.55;56.25;101275.19;4981748;28;108510;-69
2021/08/04 02:37:58;;;;;;;8.93;6.00;;;;;;;15.52;56.31;101270.06;4957944;28;109652;-70
2021/08/04 02:40:25;;;;;;;9.05;6.00;;;;;;;15.49;56.19;101272.06;4975801;28;122695;-69
2021/08/04 02:42:54;;;;;;;9.55;6.05;;;;;;;15.46;56.39;101269.53;4982416;28;124002;-70
2021/08/04 02:45:22;;;;;;;8.98;6.00;;;;;;;15.43;56.42;101265.25;4982839;28;110493;-69
2021/08/04 02:47:50;;;;;;;9.27;5.78;;;;;;;15.42;56.27;101276.03;4977048;28;109847;-70
2021/08/04 02:50:18;;;;;;;6.93;5.80;;;;;;;15.39;56.39;101274.41;4980436;28;123485;-69
2021/08/04 02:52:47;;;;;;;9.48;5.80;;;;;;;15.37;56.56;101271.81;4984681;28;124204;-70
2021/08/04 02:55:14;;;;;;;9.65;6.20;;;;;;;15.35;56.42;101276.38;4964515;28;108050;-69
2021/08/04 02:57:42;;;;;;;7.97;5.65;;;;;;;15.35;56.51;101284.41;4986267;28;108533;-69
2021/08/04 03:00:09;;;;;;;8.75;5.85;;;;;;;15.34;56.50;101277.31;4985446;28;124347;-70
2021/08/04 03:02:37;;;;;;;7.75;5.88;;;;;;;15.32;56.51;101273.88;4969248;28;123865;-70
2021/08/04 03:05:05;;;;;;;9.60;5.95;;;;;;;15.31;56.38;101277.53;4975165;28;108689;-69
2021/08/04 03:07:33;;;;;;;8.65;6.20;;;;;;;15.31;56.55;101276.63;4981526;28;109475;-69
2021/08/04 03:10:00;;;;;;;7.18;5.78;;;;;;;15.30;56.48;101269.59;4984971;28;124283;-70
2021/08/04 03:12:27;;;;;;;7.45;5.82;;;;;;;15.28;56.56;101272.34;4967866;28;122901;-69
2021/08/04 03:14:54;;;;;;;8.75;5.88;;;;;;;15.27;56.69;101270.63;4962591;28;106913;-70
2021/08/04 03:17:21;;;;;;;8.30;5.88;;;;;;;15.26;56.61;101268.91;4961071;28;109234;-70
2021/08/04 03:19:49;;;;;;;10.18;5.90;;;;;;;15.25;56.65;101269.84;4988878;28;124455;-70
2021/08/04 03:22:16;;;;;;;8.55;6.20;;;;;;;15.22;56.66;101262.03;4973283;28;123190;-69
2021/08/04 03:24:43;;;;;;;8.80;5.90;;;;;;;15.23;56.71;101261.06;4984136;28;109219;-70
2021/08/04 03:27:10;;;;;;;8.30;6.22;;;;;;;15.22;56.73;101272.72;4987124;28;108690;-70
2021/08/04 03:29:37;;;;;;;8.20;5.88;;;;;;;15.22;56.67;101272.72;4986072;28;123832;-70
2021/08/04 03:32:05;;;;;;;9.05;6.10;;;;;;;15.22;56.69;101271.81;4981859;28;123870;-69
2021/08/04 03:34:32;;;;;;;8.65;5.93;;;;;;;15.20;56.67;101274.63;4970272;28;109349;-70
2021/08/04 03:36:59;;;;;;;9.25;6.32;;;;;;;15.17;56.63;101285.44;4984332;28;108925;-70
2021/08/04 03:39:26;;;;;;;9.30;6.55;;;;;;;15.16;56.92;101278.38;4980759;28;123816;-69
2021/08/04 03:41:53;;;;;;;10.73;6.68;;;;;;;15.15;57.00;101282.00;4983762;28;124615;-70
2021/08/04 03:44:20;;;;;;;8.18;6.20;;;;;;;15.14;57.01;101274.94;4984684;28;109539;-69
2021/08/04 03:46:48;;;;;;;9.15;6.53;;;;;;;15.13;57.00;101289.25;4990866;28;109386;-69
2021/08/04 03:49:16;;;;;;;8.45;6.50;;;;;;;15.13;56.95;101289.25;4981380;28;124240;-69
2021/08/04 03:51:43;;;;;;;8.52;6.00;;;;;;;15.12;56.96;101287.50;4980677;28;123942;-69
2021/08/04 03:54:11;;;;;;;9.25;6.43;;;;;;;15.11;56.78;101292.00;4981287;28;109485;-69
2021/08/04 03:56:38;;;;;;;8.70;6.53;;;;;;;15.11;56.89;101280.47;4983587;28;108851;-69
2021/08/04 03:59:05;;;;;;;8.60;6.25;;;;;;;15.10;56.96;101289.41;4984678;28;123811;-69
2021/08/04 04:01:32;;;;;;;9.50;6.35;;;;;;;15.08;56.88;101285.97;4981261;28;124287;-69
2021/08/04 04:03:59;;;;;;;7.78;5.85;;;;;;;15.06;56.86;101286.06;4983843;28;108169;-69
2021/08/04 04:06:26;;;;;;;8.05;5.70;;;;;;;15.04;56.77;101284.44;4982687;28;109055;-69
2021/08/04 04:08:53;;;;;;;8.57;5.82;;;;;;;15.03;56.83;101288.03;4980369;28;123929;-69
2021/08/04 04:11:20;;;;;;;8.85;6.57;;;;;;;14.98;56.85;101281.16;4983085;28;123790;-69
2021/08/04 04:13:48;;;;;;;9.23;5.93;;;;;;;14.98;56.99;101290.97;4971617;28;113996;-69
2021/08/04 04:16:15;;;;;;;9.38;6.10;;;;;;;14.96;57.03;101291.06;4963388;28;113944;-69
2021/08/04 04:18:42;;;;;;;8.55;5.78;;;;;;;14.94;57.05;101290.28;4980965;28;124860;-69
2021/08/04 04:21:09;;;;;;;9.30;6.65;;;;;;;14.93;57.08;101288.53;4978909;28;123944;-69
2021/08/04 04:23:36;;;;;;;9.45;6.20;;;;;;;14.89;57.20;101287.00;4980092;28;116196;-69
2021/08/04 04:26:03;;;;;;;9.07;6.22;;;;;;;14.88;57.29;101289.75;4976520;28;115520;-70
2021/08/04 04:28:30;;;;;;;6.93;5.38;;;;;;;14.86;57.25;101287.19;4979959;28;125424;-70
2021/08/04 04:30:57;;;;;;;6.32;5.03;;;;;;;14.84;57.33;101299.72;4981510;28;123916;-69
2021/08/04 04:33:25;;;;;;;7.78;5.43;;;;;;;14.82;57.71;101296.28;4960758;28;114470;-70
2021/08/04 04:35:52;;;;;;;8.35;5.68;;;;;;;14.81;57.61;101299.91;4976575;28;114587;-70
2021/08/04 04:38:19;;;;;;;10.75;6.30;;;;;;;14.81;57.49;101305.25;4983438;28;124170;-70
2021/08/04 04:40:46;;;;;;;10.68;6.40;;;;;;;14.80;57.74;101308.84;4980663;28;124699;-70
2021/08/04 04:43:13;;;;;;;10.85;7.30;;;;;;;14.81;57.79;101310.59;4979071;28;114427;-69
2021/08/04 04:45:40;;;;;;;10.82;7.53;;;;;;;14.83;57.79;101308.69;4976755;28;113589;-69
2021/08/04 04:48:07;;;;;;;10.98;7.05;;;;;;;14.86;58.07;101305.88;4981867;28;124624;-70
2021/08/04 04:50:34;;;;;;;9.73;7.07;;;;;;;14.90;58.10;101310.06;4979324;28;124359;-70
2021/08/04 04:53:02;;;;;;;9.95;6.90;;;;;;;14.94;58.15;101305.44;4982450;28;113892;-70
2021/08/04 04:55:29;;;;;;;9.30;6.90;;;;;;;14.98;58.22;101307.81;4981279;28;116688;-70
2021/08/04 04:57:56;;;;;;;10.77;7.13;;;;;;;15.03;58.30;101314.72;4987540;28;124205;-70
2021/08/04 05:00:23;;;;;;;12.13;7.32;;;;;;;15.08;58.49;101312.66;4981336;28;123840;-69
2021/08/04 05:02:50;;;;;;;10.25;6.70;;;;;;;15.13;58.45;101310.59;4971197;28;114177;-70
2021/08/04 05:05:18;;;;;;;9.15;7.05;;;;;;;15.18;58.63;101308.50;4978382;28;114322;-70
2021/08/04 05:07:45;;;;;;;11.25;6.85;;;;;;;15.24;58.51;101308.16;4976865;28;124447;-69
2021/08/04 05:10:13;;;;;;;10.80;7.40;;;;;;;15.29;58.57;101300.75;4980543;28;123837;-69
2021/08/04 05:12:40;;;;;;;12.20;7.13;;;;;;;15.36;58.55;101310.13;4974891;28;115055;-69
2021/08/04 05:15:08;;;;;;;10.63;6.82;;;;;;;15.41;58.74;101311.66;4985260;28;114911;-70
2021/08/04 05:17:35;;;;;;;9.68;7.03;;;;;;;15.45;58.63;101313.22;4977044;28;123964;-69
2021/08/04 05:20:02;;;;;;;10.73;7.10;;;;;;;15.49;58.75;101312.09;4983368;28;123979;-69
2021/08/04 05:22:29;;;;;;;10.65;7.43;;;;;;;15.53;58.89;101314.47;4975389;28;114827;-70
2021/08/04 05:24:56;;;;;;;11.93;8.02;;;;;;;15.58;58.87;101322.25;4989323;28;113665;-70
2021/08/04 05:27:23;;;;;;;13.43;8.18;;;;;;;15.62;58.85;101318.44;4977012;28;124031;-70
2021/08/04 05:29:50;;;;;;;13.23;9.05;;;;;;;15.67;59.01;101327.03;4979644;28;124340;-70
2021/08/04 05:32:21;;;;;;;15.35;9.93;;;;;;;15.72;59.01;101335.63;4977111;28;113614;-70
2021/08/04 05:34:50;;;;;;;13.95;10.00;;;;;;;15.77;59.27;101333.56;4971454;28;114191;-71
2021/08/04 05:37:17;;;;;;;12.98;9.80;;;;;;;15.83;59.16;101342.19;4942261;28;123916;-71
2021/08/04 05:39:45;;;;;;;19.15;10.27;;;;;;;15.89;59.33;101339.16;4979164;28;124599;-71
2021/08/04 05:42:12;;;;;;;14.85;10.30;;;;;;;15.95;59.20;101341.44;4981388;28;114263;-71
2021/08/04 05:44:39;;;;;;;13.52;10.52;;;;;;;16.01;59.40;101334.88;4977032;28;114618;-72
2021/08/04 05:47:06;;;;;;;14.88;10.77;;;;;;;16.06;59.37;101344.31;4981419;28;124230;-71
2021/08/04 05:49:33;;;;;;;15.10;11.13;;;;;;;16.11;59.34;101336.91;4976736;28;123749;-71
2021/08/04 05:52:00;;;;;;;16.77;11.75;;;;;;;16.18;59.41;101336.53;4988604;28;114437;-71
2021/08/04 05:54:27;;;;;;;16.25;11.73;;;;;;;16.24;59.44;101336.19;4980617;28;113828;-70
2021/08/04 05:56:54;;;;;;;16.45;11.82;;;;;;;16.31;59.52;101340.16;4967997;28;125294;-71
2021/08/04 05:59:21;;;;;;;13.50;10.25;;;;;;;16.38;59.67;101344.19;4984403;28;123653;-71
2021/08/04 06:01:48;;;;;;;15.35;10.48;;;;;;;16.45;59.67;101334.00;4980084;28;115268;-71
2021/08/04 06:04:16;;;;;;;13.90;10.38;;;;;;;16.52;59.62;101336.19;4981551;28;114771;-71
2021/08/04 06:06:43;;;;;;;17.00;11.30;;;;;;;16.60;59.63;101337.53;4987759;28;124275;-71
2021/08/04 06:09:10;;;;;;;13.98;10.60;;;;;;;16.67;59.74;101339.72;4978687;28;124689;-71
2021/08/04 06:11:37;;;;;;;24.30;12.18;;;;;;;16.74;59.78;101335.72;4983746;28;114209;-71
2021/08/04 06:14:04;;;;;;;21.02;11.35;;;;;;;16.82;60.00;101335.25;4970949;28;114079;-71
2021/08/04 06:16:35;;;;;;;18.63;11.95;;;;;;;16.91;60.06;101337.34;4987074;28;124217;-71
2021/08/04 06:19:03;;;;;;;17.65;11.43;;;;;;;17.02;60.09;101335.78;4976055;28;123445;-71
2021/08/04 06:21:30;;;;;;;19.23;11.80;;;;;;;17.12;60.33;101334.22;4976418;28;114365;-71
2021/08/04 06:23:57;;;;;;;17.55;12.00;;;;;;;17.22;60.39;101335.34;4973795;28;114144;-71
2021/08/04 06:26:24;;;;;;;18.00;12.23;;;;;;;17.33;60.64;101340.03;4982948;28;124834;-71
2021/08/04 06:28:51;;;;;;;20.65;12.10;;;;;;;17.44;60.56;101333.94;4981413;28;123688;-71
2021/08/04 06:31:18;;;;;;;18.40;11.73;;;;;;;17.55;60.73;101334.06;4988859;28;114101;-71
2021/08/04 06:33:45;;;;;;;16.33;11.80;;;;;;;17.68;60.77;101337.66;4989175;28;114229;-71
2021/08/04 06:36:12;;;;;;;16.38;11.38;;;;;;;17.80;60.80;101332.44;4975175;28;124778;-71
2021/08/04 06:38:39;;;;;;;15.50;10.68;;;;;;;17.91;60.80;101332.59;4977981;28;124326;-71
2021/08/04 06:41:06;;;;;;;15.05;11.20;;;;;;;18.02;60.76;101331.88;4988605;28;114611;-70
2021/08/04 06:43:34;;;;;;;16.85;11.27;;;;;;;18.13;61.02;101336.50;4972931;28;114170;-71
2021/08/04 06:46:08;;;;;;;15.98;10.85;;;;;;;18.25;61.01;101335.63;4989773;28;124331;-71
2021/08/04 06:48:41;;;;;;;16.75;11.82;;;;;;;18.41;60.99;101344.31;4989887;28;123736;-70
2021/08/04 06:51:08;;;;;;;15.20;11.13;;;;;;;18.55;60.97;101332.63;4989457;28;115021;-71
2021/08/04 06:53:35;;;;;;;16.15;11.88;;;;;;;18.69;60.77;101331.66;4990211;28;114711;-71
2021/08/04 06:56:02;;;;;;;13.90;10.68;;;;;;;18.85;60.84;101340.34;4989843;28;123748;-70
2021/08/04 06:58:29;;;;;;;15.30;10.35;;;;;;;19.00;60.57;101337.50;4990285;28;125160;-71
2021/08/04 07:00:57;;;;;;;12.18;9.68;;;;;;;19.15;60.62;101336.38;4977065;28;114235;-71
2021/08/04 07:03:25;;;;;;;14.43;10.45;;;;;;;19.32;60.66;101342.34;4989506;28;113924;-71
2021/08/04 07:05:53;;;;;;;13.57;10.60;;;;;;;19.49;60.75;101339.25;4986722;28;123989;-71
2021/08/04 07:08:20;;;;;;;15.95;9.35;;;;;;;19.64;60.28;101346.16;4989840;28;124405;-71
2021/08/04 07:10:55;;;;;;;15.37;9.23;;;;;;;19.82;60.30;101345.78;4987669;28;114068;-71
2021/08/04 07:13:22;;;;;;;11.63;8.50;;;;;;;19.98;59.48;101340.09;4989624;28;114246;-71
2021/08/04 07:15:50;;;;;;;13.57;8.52;;;;;;;20.09;59.53;101347.34;4978824;28;123787;-71
2021/08/04 07:18:18;;;;;;;12.52;8.63;;;;;;;20.20;59.24;101339.28;4955368;28;123335;-71
2021/08/04 07:20:46;;;;;;;12.98;8.73;;;;;;;20.33;59.23;101340.03;4990106;28;114077;-71
2021/08/04 07:23:13;;;;;;;13.88;9.15;;;;;;;20.49;59.05;101338.81;4989582;28;113934;-71
2021/08/04 07:25:41;;;;;;;14.00;8.70;;;;;;;20.63;58.97;101343.16;4976943;28;124005;-71
2021/08/04 07:28:08;;;;;;;12.25;9.02;;;;;;;20.74;58.63;101349.41;4989911;28;124084;-71
2021/08/04 07:30:35;;;;;;;13.60;8.85;;;;;;;20.90;58.97;101342.78;4989121;28;113962;-71
2021/08/04 07:33:02;;;;;;;11.70;8.30;;;;;;;21.06;58.60;101345.94;4972323;28;113002;-71
2021/08/04 07:35:29;;;;;;;11.73;8.27;;;;;;;21.18;58.37;101344.91;4987979;28;124409;-71
2021/08/04 07:37:57;;;;;;;11.05;8.02;;;;;;;21.33;58.09;101344.66;4951781;28;122424;-71
2021/08/04 07:40:24;;;;;;;9.82;7.32;;;;;;;21.49;57.88;101339.75;4948019;28;114306;-71
2021/08/04 07:42:51;;;;;;;10.30;7.32;;;;;;;21.68;57.64;101338.16;4991690;28;115651;-71
2021/08/04 07:45:19;;;;;;;9.82;6.95;;;;;;;21.85;57.44;101340.31;4991656;28;124027;-71
2021/08/04 07:47:46;;;;;;;9.68;7.40;;;;;;;22.04;57.31;101338.72;4992533;28;124883;-71
2021/08/04 07:50:14;;;;;;;8.90;6.53;;;;;;;22.22;56.98;101337.13;4993317;28;114524;-71
2021/08/04 07:52:42;;;;;;;8.82;6.85;;;;;;;22.41;56.69;101335.59;4992537;28;114014;-71
2021/08/04 07:55:13;;;;;;;7.97;6.10;;;;;;;22.57;55.84;101335.94;4974598;28;123814;-72
2021/08/04 07:57:40;;;;;;;5.10;3.90;;;;;;;22.69;54.96;101324.03;4972218;28;122963;-71
2021/08/04 08:00:08;;;;;;;5.13;4.03;;;;;;;22.81;54.36;101332.03;4990057;28;114541;-71
2021/08/04 08:02:38;;;;;;;7.28;4.85;;;;;;;22.91;54.19;101327.53;4992755;28;114414;-71
2021/08/04 08:05:07;;;;;;;6.55;5.05;;;;;;;23.00;53.98;101321.31;4990618;28;123737;-71
2021/08/04 08:07:34;;;;;;;6.18;4.50;;;;;;;23.09;53.85;101315.13;4992359;28;124612;-71
2021/08/04 08:10:03;;;;;;;10.55;4.72;;;;;;;23.21;53.85;101317.69;4991882;28;114175;-71
2021/08/04 08:12:31;;;;;;;7.18;4.97;;;;;;;23.36;53.67;101316.28;4992395;28;114036;-72
2021/08/04 08:14:58;;;;;;;7.38;4.85;;;;;;;23.50;53.17;101312.31;4991101;28;124238;-71
2021/08/04 08:17:25;;;;;;;7.93;4.78;;;;;;;23.62;52.91;101310.28;4992439;28;124565;-71
2021/08/04 08:19:53;;;;;;;9.80;4.68;;;;;;;23.71;52.35;101309.44;4973883;28;114098;-71
2021/08/04 08:22:20;;;;;;;5.95;4.65;;;;;;;23.78;51.50;101310.59;4992880;28;114567;-71
2021/08/04 08:24:47;;;;;;;9.15;5.18;;;;;;;23.82;52.10;101309.31;4990700;28;124777;-71
2021/08/04 08:27:15;;;;;;;6.07;4.70;;;;;;;23.94;51.70;101314.56;4991591;28;123571;-71
2021/08/04 08:29:42;;;;;;;5.78;4.80;;;;;;;24.02;51.46;101312.00;4973936;28;115540;-71
2021/08/04 08:32:09;;;;;;;6.43;4.30;;;;;;;24.12;50.79;101302.00;4978086;28;113965;-71
2021/08/04 08:34:36;;;;;;;8.48;4.30;;;;;;;24.19;49.93;101303.13;4991442;28;123978;-71
2021/08/04 08:37:03;;;;;;;6.53;4.00;;;;;;;24.25;50.08;101307.94;4991174;28;125477;-71
2021/08/04 08:39:32;;;;;;;4.90;3.90;;;;;;;24.35;49.72;101301.66;4991915;28;114221;-71
2021/08/04 08:42:00;;;;;;;4.68;3.65;;;;;;;24.45;49.09;101305.19;4992204;28;113717;-72
2021/08/04 08:44:27;;;;;;;5.70;4.10;;;;;;;24.53;49.17;101310.75;4991249;28;124025;-72
2021/08/04 08:46:54;;;;;;;9.60;4.28;;;;;;;24.62;48.83;101299.00;4992163;28;122955;-71
2021/08/04 08:49:27;;;;;;;5.50;4.25;;;;;;;24.70;48.37;101306.38;4992106;28;115053;-71
2021/08/04 08:51:55;;;;;;;6.53;3.78;;;;;;;24.74;47.75;101296.94;4991851;28;113851;-72
2021/08/04 08:54:23;;;;;;;5.88;3.97;;;;;;;24.77;47.70;101301.19;4990221;28;124064;-71
2021/08/04 08:56:50;;;;;;;6.35;4.32;;;;;;;24.78;47.63;101302.94;4991604;28;123659;-71
2021/08/04 08:59:18;;;;;;;6.85;4.55;;;;;;;24.82;47.94;101307.88;4991779;28;114651;-71
2021/08/04 09:01:45;;;;;;;7.15;4.90;;;;;;;24.92;47.46;101294.28;4978293;28;114117;-71
2021/08/04 09:04:16;;;;;;;8.02;4.80;;;;;;;24.96;46.25;101295.69;4991013;28;124503;-71
2021/08/04 09:06:55;;;;;;;6.45;4.35;;;;;;;24.97;46.54;101291.97;4988247;28;123477;-71
2021/08/04 09:09:24;;;;;;;5.50;3.97;;;;;;;25.03;46.16;101299.50;4988889;28;114162;-71
2021/08/04 09:11:55;;;;;;;4.97;3.70;;;;;;;25.07;45.03;101291.88;4977723;28;114000;-71
2021/08/04 09:14:27;;;;;;;4.97;3.35;;;;;;;25.05;44.55;101299.31;4960853;28;123052;-71
2021/08/04 09:17:03;;;;;;;6.78;3.45;;;;;;;25.00;44.43;101302.50;4989719;28;123936;-71
2021/08/04 09:19:35;;;;;;;5.30;3.78;;;;;;;25.02;44.80;101297.78;4989328;28;115383;-71
2021/08/04 09:22:04;;;;;;;4.82;3.35;;;;;;;25.05;44.34;101305.63;4990216;28;115207;-71
2021/08/04 09:24:54;;;;;;;4.93;3.47;;;;;;;25.09;45.55;101305.28;4973109;28;123686;-71
2021/08/04 09:27:40;;;;;;;4.32;3.50;;;;;;;25.19;45.05;101306.09;4978030;28;124753;-71
2021/08/04 09:30:10;;;;;;;7.70;3.75;;;;;;;25.25;44.63;101305.50;4988440;28;114160;-72
2021/08/04 09:32:37;;;;;;;6.18;3.58;;;;;;;25.34;44.58;101304.59;4969109;28;113975;-71
2021/08/04 09:35:09;;;;;;;5.78;3.58;;;;;;;25.38;44.29;101311.41;4963308;28;123283;-70
2021/08/04 09:37:36;;;;;;;6.90;4.65;;;;;;;25.42;43.87;101301.94;4988033;28;124701;-70
2021/08/04 09:40:04;;;;;;;5.65;4.53;;;;;;;25.43;44.08;101292.81;4981732;28;114081;-70
2021/08/04 09:42:48;;;;;;;4.70;3.97;;;;;;;25.53;44.84;101297.31;4953591;28;113704;-70
2021/08/04 09:45:18;;;;;;;7.33;4.13;;;;;;;25.66;45.14;101297.75;4970055;28;124780;-70
2021/08/04 09:48:09;;;;;;;5.50;4.38;;;;;;;25.87;44.69;101304.72;4970969;28;124747;-70
2021/08/04 09:50:53;;;;;;;5.00;4.47;;;;;;;25.95;43.79;101302.06;4970576;28;114158;-71
2021/08/04 09:53:30;;;;;;;5.50;4.57;;;;;;;25.93;43.98;101295.97;4949104;28;113051;-71
2021/08/04 09:56:07;;;;;;;5.88;4.32;;;;;;;25.92;43.26;101296.94;4982775;28;125083;-71
2021/08/04 09:58:45;;;;;;;8.07;4.55;;;;;;;25.96;43.11;101298.38;4963610;28;124150;-71
2021/08/04 10:01:15;;;;;;;6.05;4.40;;;;;;;26.04;43.55;101290.25;4984335;28;114436;-71
2021/08/04 10:04:01;;;;;;;5.70;4.20;;;;;;;26.12;44.03;101287.59;4983923;28;114050;-71
2021/08/04 10:06:34;;;;;;;4.80;3.40;;;;;;;26.25;43.95;101286.31;4979273;28;124400;-72
2021/08/04 10:09:03;;;;;;;5.13;3.65;;;;;;;26.35;43.17;101287.03;4984928;28;123878;-72
2021/08/04 10:11:31;;;;;;;5.60;3.83;;;;;;;26.42;42.60;101293.53;4989865;28;115204;-72
2021/08/04 10:13:59;;;;;;;5.32;3.45;;;;;;;26.45;42.14;101292.34;4984878;28;114816;-72
2021/08/04 10:16:32;;;;;;;7.15;4.03;;;;;;;26.44;41.63;101288.78;4966730;28;124043;-72
2021/08/04 10:19:05;;;;;;;6.22;4.00;;;;;;;26.44;41.21;101296.94;4981711;28;126153;-72
2021/08/04 10:21:34;;;;;;;8.07;4.47;;;;;;;26.48;41.70;101282.00;4981537;28;113973;-72
2021/08/04 10:24:06;;;;;;;6.15;4.07;;;;;;;26.56;40.84;101284.78;4988282;28;113825;-70
2021/08/04 10:26:36;;;;;;;7.93;4.32;;;;;;;26.58;41.99;101282.75;4983754;28;98600;-71
2021/08/04 10:29:05;;;;;;;8.07;4.43;;;;;;;26.68;41.68;101281.81;4972248;28;122705;-71
2021/08/04 10:31:33;;;;;;;7.20;4.70;;;;;;;26.74;41.05;101276.53;4990528;28;114588;-71
2021/08/04 10:34:02;;;;;;;4.88;3.63;;;;;;;26.78;40.96;101283.34;4989102;28;114039;-71
2021/08/04 10:36:32;;;;;;;6.47;4.18;;;;;;;26.84;41.18;101270.97;4972121;28;124731;-72
2021/08/04 10:39:14;;;;;;;6.28;3.53;;;;;;;26.90;40.26;101259.44;4971822;28;124026;-70
2021/08/04 10:42:06;;;;;;;6.70;3.88;;;;;;;26.97;40.89;101265.06;4989817;28;115248;-72
2021/08/04 10:44:34;;;;;;;6.82;3.92;;;;;;;26.96;40.01;101258.78;4954555;28;112961;-71
2021/08/04 10:47:05;;;;;;;5.82;3.95;;;;;;;26.87;39.67;101259.78;4981650;28;123598;-71
2021/08/04 10:49:35;;;;;;;4.70;3.33;;;;;;;26.78;39.58;101266.19;4983757;28;123949;-71
2021/08/04 10:52:07;;;;;;;5.15;3.75;;;;;;;26.69;39.83;101259.03;4981185;28;113787;-71
2021/08/04 10:54:34;;;;;;;4.82;3.47;;;;;;;26.64;40.40;101264.97;4980111;28;113669;-74
2021/08/04 10:57:01;;;;;;;6.10;3.90;;;;;;;26.67;40.07;101263.78;4978896;28;123913;-71
2021/08/04 10:59:30;;;;;;;5.00;3.72;;;;;;;26.70;39.91;101266.19;4978296;28;124462;-71
2021/08/04 11:02:02;;;;;;;6.30;3.83;;;;;;;26.72;40.56;101266.88;4981148;28;115159;-71
2021/08/04 11:04:30;;;;;;;4.38;3.53;;;;;;;26.77;40.05;101267.22;4975353;28;115284;-71
2021/08/04 11:07:17;;;;;;;5.07;3.92;;;;;;;26.79;39.56;101257.03;4975822;28;124502;-71
2021/08/04 11:09:47;;;;;;;5.90;4.15;;;;;;;26.81;39.98;101255.00;4970363;28;123346;-71
2021/08/04 11:12:17;;;;;;;6.43;4.13;;;;;;;26.89;40.16;101238.72;4970270;28;113892;-71
2021/08/04 11:14:55;;;;;;;5.13;3.90;;;;;;;26.99;39.71;101253.03;4976301;28;114240;-71
2021/08/04 11:17:25;;;;;;;5.65;3.50;;;;;;;27.09;39.91;101246.59;4974546;28;123994;-71
2021/08/04 11:22:38;;;;;;;7.47;4.25;;;;;;;27.13;39.58;101251.50;4980191;28;114196;-71
2021/08/04 11:25:08;;;;;;;8.18;4.50;;;;;;;27.10;39.35;101245.53;4979921;28;114060;-72
2021/08/04 11:27:56;;;;;;;6.63;4.00;;;;;;;27.03;39.86;101244.50;4980928;28;124150;-72